createdAt,value
2018-12-22T00:01:13.693Z,9.10
2018-12-22T00:03:42.510Z,9.20
2018-12-22T00:06:11.160Z,9.20
2018-12-22T00:08:40.077Z,9.20
2018-12-22T00:11:08.832Z,9.20
2018-12-22T00:13:37.547Z,9.30
2018-12-22T00:16:06.270Z,9.30
2018-12-22T00:18:34.921Z,9.40
2018-12-22T00:21:03.733Z,9.30
2018-12-22T00:23:32.390Z,9.40
2018-12-22T00:26:01.144Z,9.40
2018-12-22T00:28:29.829Z,9.30
2018-12-22T00:30:58.494Z,9.30
2018-12-22T00:33:27.317Z,9.30
2018-12-22T00:35:56.037Z,9.20
2018-12-22T00:38:24.814Z,9.20
2018-12-22T00:40:53.552Z,9.20
2018-12-22T00:43:22.266Z,9.20
2018-12-22T00:45:50.916Z,9.20
2018-12-22T00:48:19.710Z,9.20
2018-12-22T00:50:48.547Z,9.10
2018-12-22T00:53:17.338Z,9.10
2018-12-22T00:55:46.115Z,9.10
2018-12-22T00:58:14.867Z,9.10
2018-12-22T01:00:43.668Z,9.10
2018-12-22T01:03:12.352Z,9.10
2018-12-22T01:05:41.169Z,9.10
2018-12-22T01:08:09.866Z,9.10
2018-12-22T01:10:38.512Z,9.10
2018-12-22T01:13:07.260Z,9.10
2018-12-22T01:15:35.959Z,9.10
2018-12-22T01:18:04.723Z,9.10
2018-12-22T01:20:33.489Z,9.10
2018-12-22T01:23:02.421Z,9.00
2018-12-22T01:25:31.123Z,9.00
2018-12-22T01:27:59.851Z,9.10
2018-12-22T01:30:28.598Z,9.00
2018-12-22T01:32:57.383Z,9.10
2018-12-22T01:35:26.172Z,9.10
2018-12-22T01:37:54.934Z,9.00
2018-12-22T01:40:23.747Z,9.10
2018-12-22T01:42:52.459Z,9.00
2018-12-22T01:45:21.262Z,9.00
2018-12-22T01:47:50.092Z,9.00
2018-12-22T01:50:18.868Z,8.90
2018-12-22T01:52:47.732Z,9.00
2018-12-22T01:55:16.380Z,9.10
2018-12-22T01:57:45.053Z,9.10
2018-12-22T02:00:13.758Z,9.00
2018-12-22T02:02:42.470Z,8.90
2018-12-22T02:05:11.166Z,8.90
2018-12-22T02:07:39.804Z,9.00
2018-12-22T02:10:08.618Z,8.90
2018-12-22T02:12:37.372Z,8.90
2018-12-22T02:15:06.258Z,8.80
2018-12-22T02:17:34.967Z,8.90
2018-12-22T02:20:03.943Z,8.90
2018-12-22T02:22:32.591Z,8.90
2018-12-22T02:25:01.294Z,8.90
2018-12-22T02:27:29.987Z,8.90
2018-12-22T02:29:58.668Z,8.80
2018-12-22T02:32:27.673Z,8.90
2018-12-22T02:34:56.615Z,8.90
2018-12-22T02:37:25.440Z,8.80
2018-12-22T02:39:54.211Z,8.80
2018-12-22T02:42:22.983Z,8.90
2018-12-22T02:44:51.867Z,8.90
2018-12-22T02:47:20.551Z,8.90
2018-12-22T02:49:49.255Z,8.80
2018-12-22T02:52:17.904Z,8.80
2018-12-22T02:54:46.619Z,8.80
2018-12-22T02:57:15.388Z,8.80
2018-12-22T02:59:44.176Z,8.80
2018-12-22T03:02:12.897Z,8.70
2018-12-22T03:04:41.626Z,8.70
2018-12-22T03:07:10.355Z,8.70
2018-12-22T03:09:39.136Z,8.70
2018-12-22T03:12:07.901Z,8.70
2018-12-22T03:14:36.712Z,8.70
2018-12-22T03:17:05.472Z,8.60
2018-12-22T03:19:34.317Z,8.70
2018-12-22T03:22:03.059Z,8.70
2018-12-22T03:24:31.770Z,8.70
2018-12-22T03:27:00.410Z,8.70
2018-12-22T03:29:29.588Z,8.60
2018-12-22T03:31:58.301Z,8.60
2018-12-22T03:34:27.144Z,8.60
2018-12-22T03:36:55.805Z,8.60
2018-12-22T03:39:24.493Z,8.60
2018-12-22T03:41:53.197Z,8.60
2018-12-22T03:44:22.261Z,8.60
2018-12-22T03:46:50.981Z,8.60
2018-12-22T03:49:19.743Z,8.60
2018-12-22T03:51:48.476Z,8.60
2018-12-22T03:54:17.112Z,8.50
2018-12-22T03:56:45.889Z,8.50
2018-12-22T03:59:14.604Z,8.50
2018-12-22T04:01:43.450Z,8.50
2018-12-22T04:04:13.983Z,8.50
2018-12-22T04:06:42.717Z,8.50
2018-12-22T04:09:11.460Z,8.50
2018-12-22T04:11:40.247Z,8.50
2018-12-22T04:14:08.941Z,8.50
2018-12-22T04:16:37.982Z,8.50
2018-12-22T04:19:06.695Z,8.40
2018-12-22T04:21:35.474Z,8.40
2018-12-22T04:24:04.226Z,8.50
2018-12-22T04:26:32.986Z,8.40
2018-12-22T04:29:01.717Z,8.40
2018-12-22T04:31:30.495Z,8.40
2018-12-22T04:33:59.138Z,8.40
2018-12-22T04:36:27.900Z,8.40
2018-12-22T04:38:56.734Z,8.40
2018-12-22T04:41:25.404Z,8.40
2018-12-22T04:43:54.083Z,8.40
2018-12-22T04:46:22.844Z,8.40
2018-12-22T04:48:51.528Z,8.40
2018-12-22T04:51:20.330Z,8.40
2018-12-22T04:53:49.126Z,8.40
2018-12-22T04:56:17.818Z,8.40
2018-12-22T04:58:46.531Z,8.40
2018-12-22T05:01:15.337Z,8.40
2018-12-22T05:03:44.098Z,8.40
2018-12-22T05:06:12.922Z,8.40
2018-12-22T05:08:41.567Z,8.40
2018-12-22T05:11:10.202Z,8.30
2018-12-22T05:13:38.897Z,8.40
2018-12-22T05:16:07.623Z,8.40
2018-12-22T05:18:36.386Z,8.30
2018-12-22T05:21:05.147Z,8.30
2018-12-22T05:23:33.938Z,8.30
2018-12-22T05:26:02.712Z,8.30
2018-12-22T05:28:31.430Z,8.30
2018-12-22T05:31:00.071Z,8.30
2018-12-22T05:33:29.269Z,8.30
2018-12-22T05:35:57.988Z,8.30
2018-12-22T05:38:26.697Z,8.30
2018-12-22T05:40:55.336Z,8.30
2018-12-22T05:43:24.054Z,8.30
2018-12-22T05:45:52.712Z,8.30
2018-12-22T05:48:21.364Z,8.30
2018-12-22T05:50:49.997Z,8.30
2018-12-22T05:53:18.702Z,8.30
2018-12-22T05:55:47.420Z,8.30
2018-12-22T05:58:16.186Z,8.20
2018-12-22T06:00:44.923Z,8.30
2018-12-22T06:03:13.635Z,8.30
2018-12-22T06:05:42.397Z,8.30
2018-12-22T06:08:11.103Z,8.30
2018-12-22T06:10:39.777Z,8.30
2018-12-22T06:13:08.564Z,8.20
2018-12-22T06:15:37.206Z,8.20
2018-12-22T06:18:06.002Z,8.20
2018-12-22T06:20:34.734Z,8.20
2018-12-22T06:23:03.511Z,8.20
2018-12-22T06:25:32.238Z,8.20
2018-12-22T06:28:01.017Z,8.20
2018-12-22T06:30:29.739Z,8.20
2018-12-22T06:32:58.474Z,8.20
2018-12-22T06:35:27.177Z,8.20
2018-12-22T06:37:55.889Z,8.20
2018-12-22T06:40:24.655Z,8.20
2018-12-22T06:42:53.282Z,8.20
2018-12-22T06:45:21.998Z,8.20
2018-12-22T06:47:50.847Z,8.20
2018-12-22T06:50:19.636Z,8.20
2018-12-22T06:52:48.523Z,8.10
2018-12-22T06:55:17.247Z,8.10
2018-12-22T06:57:45.946Z,8.10
2018-12-22T07:00:17.931Z,8.20
2018-12-22T07:02:45.360Z,8.10
2018-12-22T07:05:14.122Z,8.20
2018-12-22T07:07:42.796Z,8.10
2018-12-22T07:10:11.722Z,8.10
2018-12-22T07:12:40.443Z,8.10
2018-12-22T07:15:09.266Z,8.10
2018-12-22T07:17:38.066Z,8.10
2018-12-22T07:20:07.046Z,8.10
2018-12-22T07:22:35.929Z,8.10
2018-12-22T07:25:04.814Z,8.10
2018-12-22T07:27:33.553Z,8.10
2018-12-22T07:30:02.326Z,8.10
2018-12-22T07:32:30.997Z,8.00
2018-12-22T07:34:59.732Z,8.00
2018-12-22T07:37:28.562Z,8.00
2018-12-22T07:39:57.228Z,8.00
2018-12-22T07:42:26.089Z,8.00
2018-12-22T07:44:54.878Z,8.00
2018-12-22T07:47:23.769Z,8.00
2018-12-22T07:49:52.425Z,8.00
2018-12-22T07:52:21.282Z,8.00
2018-12-22T07:54:50.128Z,8.00
2018-12-22T07:57:18.817Z,8.00
2018-12-22T07:59:47.575Z,8.00
2018-12-22T08:02:16.243Z,8.00
2018-12-22T08:04:44.969Z,8.00
2018-12-22T08:07:13.823Z,8.00
2018-12-22T08:09:42.605Z,8.00
2018-12-22T08:12:11.309Z,8.00
2018-12-22T08:14:40.169Z,8.00
2018-12-22T08:17:08.893Z,8.00
2018-12-22T08:19:37.617Z,8.00
2018-12-22T08:22:08.444Z,8.00
2018-12-22T08:24:37.113Z,8.00
2018-12-22T08:27:05.905Z,8.00
2018-12-22T08:29:34.711Z,8.00
2018-12-22T08:32:03.478Z,8.00
2018-12-22T08:34:32.317Z,8.00
2018-12-22T08:37:01.136Z,7.90
2018-12-22T08:39:29.995Z,8.00
2018-12-22T08:41:58.782Z,8.00
2018-12-22T08:44:27.888Z,7.90
2018-12-22T08:46:56.593Z,7.90
2018-12-22T08:49:25.456Z,7.90
2018-12-22T08:51:54.279Z,7.90
2018-12-22T08:54:23.008Z,7.90
2018-12-22T08:56:51.816Z,7.90
2018-12-22T08:59:20.582Z,7.90
2018-12-22T09:01:49.296Z,7.90
2018-12-22T09:04:18.155Z,7.90
2018-12-22T09:06:46.976Z,7.90
2018-12-22T09:09:15.712Z,7.90
2018-12-22T09:11:44.495Z,7.90
2018-12-22T09:14:13.207Z,7.80
2018-12-22T09:16:41.964Z,7.90
2018-12-22T09:19:10.808Z,7.90
2018-12-22T09:21:39.639Z,7.90
2018-12-22T09:24:08.400Z,7.90
2018-12-22T09:26:37.280Z,7.90
2018-12-22T09:29:05.990Z,7.90
2018-12-22T09:31:34.888Z,7.90
2018-12-22T09:34:03.659Z,8.00
2018-12-22T09:36:32.440Z,7.90
2018-12-22T09:39:01.381Z,8.00
2018-12-22T09:41:30.171Z,7.90
2018-12-22T09:43:58.860Z,7.90
2018-12-22T09:46:27.888Z,7.90
2018-12-22T09:48:56.620Z,7.90
2018-12-22T09:51:25.411Z,7.90
2018-12-22T09:53:54.175Z,7.90
2018-12-22T09:56:23.125Z,7.90
2018-12-22T09:58:51.934Z,7.90
2018-12-22T10:01:20.715Z,7.90
2018-12-22T10:03:49.414Z,7.90
2018-12-22T10:06:18.683Z,7.90
2018-12-22T10:08:47.548Z,7.90
2018-12-22T10:11:16.384Z,7.90
2018-12-22T10:13:45.295Z,7.90
2018-12-22T10:16:14.063Z,7.90
2018-12-22T10:18:42.918Z,7.90
2018-12-22T10:21:11.720Z,7.80
2018-12-22T10:23:40.535Z,7.80
2018-12-22T10:26:09.303Z,7.80
2018-12-22T10:28:38.137Z,7.80
2018-12-22T10:31:06.898Z,7.80
2018-12-22T10:33:35.751Z,7.70
2018-12-22T10:36:04.675Z,7.80
2018-12-22T10:38:33.507Z,7.80
2018-12-22T10:41:02.451Z,7.80
2018-12-22T10:43:31.271Z,7.80
2018-12-22T10:46:00.275Z,7.80
2018-12-22T10:48:29.123Z,7.80
2018-12-22T10:50:57.893Z,7.80
2018-12-22T10:53:26.726Z,7.80
2018-12-22T10:55:55.501Z,7.80
2018-12-22T10:58:24.280Z,7.80
2018-12-22T11:00:53.201Z,7.70
2018-12-22T11:03:21.903Z,7.80
2018-12-22T11:05:50.786Z,7.70
2018-12-22T11:08:19.553Z,7.80
2018-12-22T11:10:48.184Z,7.80
2018-12-22T11:13:16.973Z,7.70
2018-12-22T11:15:45.897Z,7.70
2018-12-22T11:18:14.925Z,7.70
2018-12-22T11:20:43.689Z,7.70
2018-12-22T11:23:20.255Z,7.70
2018-12-22T11:25:43.327Z,7.70
2018-12-22T11:28:12.077Z,7.70
2018-12-22T11:30:43.076Z,7.70
2018-12-22T11:33:12.247Z,7.70
2018-12-22T11:35:41.176Z,7.70
2018-12-22T11:38:10.103Z,7.70
2018-12-22T11:40:38.954Z,7.70
2018-12-22T11:43:07.758Z,7.70
2018-12-22T11:45:36.578Z,7.70
2018-12-22T11:50:20.137Z,7.70
2018-12-22T11:52:48.913Z,7.70
2018-12-22T11:55:17.698Z,7.70
2018-12-22T11:57:46.367Z,7.60
2018-12-22T12:00:16.086Z,7.60
2018-12-22T12:02:44.910Z,7.70
2018-12-22T12:05:13.899Z,7.70
2018-12-22T12:07:42.992Z,7.70
2018-12-22T12:10:12.172Z,7.60
2018-12-22T12:12:41.346Z,7.70
2018-12-22T12:15:15.716Z,7.60
2018-12-22T12:18:52.065Z,7.70
2018-12-22T12:21:20.958Z,7.60
2018-12-22T12:23:49.995Z,7.60
2018-12-22T12:26:18.867Z,7.60
2018-12-22T12:28:47.809Z,7.60
2018-12-22T12:31:16.747Z,7.60
2018-12-22T12:33:45.729Z,7.60
2018-12-22T12:36:14.555Z,7.60
2018-12-22T12:38:43.278Z,7.60
2018-12-22T12:41:12.073Z,7.50
2018-12-22T12:43:40.717Z,7.50
2018-12-22T12:46:10.070Z,7.50
2018-12-22T12:48:39.173Z,7.50
2018-12-22T12:51:07.995Z,7.50
2018-12-22T12:53:37.039Z,7.50
2018-12-22T12:56:05.844Z,7.50
2018-12-22T12:58:34.735Z,7.50
2018-12-22T13:01:03.609Z,7.50
2018-12-22T13:03:32.419Z,7.60
2018-12-22T13:06:01.148Z,7.60
2018-12-22T13:08:30.184Z,7.50
2018-12-22T13:10:59.323Z,7.50
2018-12-22T13:13:35.203Z,7.50
2018-12-22T13:16:04.237Z,7.50
2018-12-22T13:18:33.833Z,7.40
2018-12-22T13:21:04.298Z,7.40
2018-12-22T13:23:33.113Z,7.40
2018-12-22T13:26:01.932Z,7.40
2018-12-22T13:28:30.627Z,7.40
2018-12-22T13:30:59.351Z,7.40
2018-12-22T13:33:28.153Z,7.40
2018-12-22T13:35:57.499Z,7.30
2018-12-22T13:38:26.900Z,7.30
2018-12-22T13:40:55.863Z,7.30
2018-12-22T13:43:24.543Z,7.40
2018-12-22T13:45:53.227Z,7.30
2018-12-22T13:48:22.447Z,7.30
2018-12-22T13:50:51.578Z,7.30
2018-12-22T13:53:20.950Z,7.30
2018-12-22T13:55:49.887Z,7.20
2018-12-22T13:58:18.731Z,7.30
2018-12-22T14:00:47.987Z,7.30
2018-12-22T14:03:20.373Z,7.20
2018-12-22T14:05:49.363Z,7.20
2018-12-22T14:08:18.815Z,7.20
2018-12-22T14:10:47.693Z,7.20
2018-12-22T14:13:16.487Z,7.20
2018-12-22T14:15:57.347Z,7.20
2018-12-22T14:18:46.925Z,7.20
2018-12-22T14:21:16.477Z,7.20
2018-12-22T14:23:55.319Z,7.10
2018-12-22T14:26:24.151Z,7.10
2018-12-22T14:28:53.762Z,7.20
2018-12-22T14:31:22.582Z,7.20
2018-12-22T14:33:53.114Z,7.20
2018-12-22T14:36:22.068Z,7.20
2018-12-22T14:38:50.808Z,7.20
2018-12-22T14:41:19.855Z,7.20
2018-12-22T14:43:48.559Z,7.20
2018-12-22T14:46:17.326Z,7.10
2018-12-22T14:48:46.034Z,7.10
2018-12-22T14:51:15.033Z,7.10
2018-12-22T14:53:43.688Z,7.10
2018-12-22T14:56:13.386Z,7.10
2018-12-22T14:58:42.306Z,7.10
2018-12-22T15:01:11.162Z,7.10
2018-12-22T15:03:40.146Z,7.10
2018-12-22T15:06:09.050Z,7.10
2018-12-22T15:08:37.874Z,7.10
2018-12-22T15:11:06.760Z,7.10
2018-12-22T15:13:35.653Z,7.10
2018-12-22T15:16:04.594Z,7.10
2018-12-22T15:18:33.386Z,7.10
2018-12-22T15:21:02.170Z,7.10
2018-12-22T15:23:31.088Z,7.10
2018-12-22T15:25:59.806Z,7.10
2018-12-22T15:28:28.576Z,7.10
2018-12-22T15:30:57.462Z,7.10
2018-12-22T15:33:26.220Z,7.10
2018-12-22T15:35:55.134Z,7.10
2018-12-22T15:38:24.335Z,7.10
2018-12-22T15:40:53.139Z,7.20
2018-12-22T15:43:22.286Z,7.10
2018-12-22T15:45:51.096Z,7.10
2018-12-22T15:48:19.998Z,7.10
2018-12-22T15:50:49.245Z,7.20
2018-12-22T15:53:17.986Z,7.10
2018-12-22T15:55:46.814Z,7.10
2018-12-22T15:58:15.658Z,7.10
2018-12-22T16:00:44.518Z,7.20
2018-12-22T16:03:13.438Z,7.20
2018-12-22T16:05:42.639Z,7.10
2018-12-22T16:08:11.536Z,7.10
2018-12-22T16:10:40.333Z,7.10
2018-12-22T16:13:09.353Z,7.20
2018-12-22T16:15:38.200Z,7.10
2018-12-22T16:18:07.091Z,7.10
2018-12-22T16:20:35.997Z,7.10
2018-12-22T16:23:05.328Z,7.10
2018-12-22T16:25:34.283Z,7.10
2018-12-22T16:28:08.518Z,7.10
2018-12-22T16:30:44.973Z,7.10
2018-12-22T16:33:13.795Z,7.10
2018-12-22T16:35:42.632Z,7.10
2018-12-22T16:38:11.528Z,7.10
2018-12-22T16:40:40.648Z,7.10
2018-12-22T16:43:12.013Z,7.10
2018-12-22T16:45:44.209Z,7.10
2018-12-22T16:48:13.111Z,7.10
2018-12-22T16:50:43.506Z,7.10
2018-12-22T16:53:12.498Z,7.10
2018-12-22T16:55:42.353Z,7.10
2018-12-22T16:58:17.691Z,7.10
2018-12-22T17:00:56.037Z,7.10
2018-12-22T17:03:25.026Z,7.10
2018-12-22T17:05:53.869Z,7.10
2018-12-22T17:08:22.757Z,7.10
2018-12-22T17:10:55.923Z,7.10
2018-12-22T17:13:24.823Z,7.10
2018-12-22T17:15:56.613Z,7.10
2018-12-22T17:18:25.998Z,7.10
2018-12-22T17:20:59.839Z,7.10
2018-12-22T17:23:42.445Z,7.10
2018-12-22T17:26:11.297Z,7.10
2018-12-22T17:28:40.375Z,7.10
2018-12-22T17:31:09.369Z,7.00
2018-12-22T17:33:38.217Z,7.10
2018-12-22T17:36:07.641Z,7.10
2018-12-22T17:38:36.507Z,7.10
2018-12-22T17:41:05.307Z,7.10
2018-12-22T17:43:34.366Z,7.10
2018-12-22T17:46:03.520Z,7.10
2018-12-22T17:48:32.438Z,7.00
2018-12-22T17:51:01.495Z,7.00
2018-12-22T17:53:30.484Z,7.00
2018-12-22T17:55:59.290Z,7.00
2018-12-22T17:58:28.102Z,7.00
2018-12-22T18:00:57.138Z,7.00
2018-12-22T18:03:30.738Z,6.90
2018-12-22T18:05:59.734Z,7.00
2018-12-22T18:08:28.509Z,7.00
2018-12-22T18:10:57.302Z,7.00
2018-12-22T18:13:28.078Z,7.00
2018-12-22T18:15:57.035Z,7.10
2018-12-22T18:18:25.951Z,7.10
2018-12-22T18:20:54.734Z,7.10
2018-12-22T18:23:23.606Z,7.10
2018-12-22T18:25:52.548Z,7.10
2018-12-22T18:28:21.417Z,7.00
2018-12-22T18:30:50.236Z,7.00
2018-12-22T18:33:19.017Z,7.00
2018-12-22T18:35:47.965Z,7.00
2018-12-22T18:38:16.846Z,7.00
2018-12-22T18:40:45.679Z,6.90
2018-12-22T18:43:14.659Z,6.90
2018-12-22T18:45:43.559Z,6.80
2018-12-22T18:48:12.284Z,6.80
2018-12-22T18:50:41.093Z,6.80
2018-12-22T18:53:09.958Z,6.80
2018-12-22T18:55:38.709Z,6.80
2018-12-22T18:58:09.486Z,6.70
2018-12-22T19:00:38.435Z,6.70
2018-12-22T19:03:07.239Z,6.70
2018-12-22T19:05:36.075Z,6.70
2018-12-22T19:08:13.441Z,6.70
2018-12-22T19:10:50.135Z,6.70
2018-12-22T19:13:18.947Z,6.70
2018-12-22T19:15:47.762Z,6.70
2018-12-22T19:18:16.617Z,6.70
2018-12-22T19:20:49.456Z,6.70
2018-12-22T19:23:19.573Z,6.70
2018-12-22T19:25:48.374Z,6.70
2018-12-22T19:28:17.143Z,6.70
2018-12-22T19:30:45.955Z,6.60
2018-12-22T19:33:14.744Z,6.60
2018-12-22T19:35:43.493Z,6.60
2018-12-22T19:38:12.252Z,6.70
2018-12-22T19:40:41.122Z,6.60
2018-12-22T19:43:09.910Z,6.60
2018-12-22T19:45:39.381Z,6.60
2018-12-22T19:48:08.335Z,6.60
2018-12-22T19:50:37.062Z,6.60
2018-12-22T19:53:05.818Z,6.50
2018-12-22T19:55:34.678Z,6.50
2018-12-22T19:58:03.458Z,6.50
2018-12-22T20:00:32.102Z,6.40
2018-12-22T20:03:00.891Z,6.40
2018-12-22T20:05:29.800Z,6.40
2018-12-22T20:07:58.590Z,6.40
2018-12-22T20:10:27.396Z,6.40
2018-12-22T20:12:56.186Z,6.40
2018-12-22T20:15:24.904Z,6.40
2018-12-22T20:17:53.673Z,6.30
2018-12-22T20:20:22.498Z,6.30
2018-12-22T20:22:51.296Z,6.30
2018-12-22T20:25:20.013Z,6.40
2018-12-22T20:27:48.722Z,6.40
2018-12-22T20:30:17.475Z,6.50
2018-12-22T20:32:46.348Z,6.40
2018-12-22T20:35:15.077Z,6.50
2018-12-22T20:37:43.965Z,6.40
2018-12-22T20:40:12.790Z,6.40
2018-12-22T20:42:41.492Z,6.40
2018-12-22T20:45:10.303Z,6.50
2018-12-22T20:47:38.981Z,6.50
2018-12-22T20:50:07.860Z,6.40
2018-12-22T20:52:36.533Z,6.50
2018-12-22T20:55:05.558Z,6.50
2018-12-22T20:57:34.314Z,6.40
2018-12-22T21:00:03.255Z,6.40
2018-12-22T21:02:31.938Z,6.50
2018-12-22T21:05:00.835Z,6.40
2018-12-22T21:07:29.599Z,6.40
2018-12-22T21:09:58.265Z,6.40
2018-12-22T21:12:27.025Z,6.40
2018-12-22T21:14:55.740Z,6.40
2018-12-22T21:17:24.561Z,6.40
2018-12-22T21:19:53.470Z,6.20
2018-12-22T21:22:22.194Z,6.20
2018-12-22T21:24:51.039Z,6.20
2018-12-22T21:27:19.771Z,6.30
2018-12-22T21:29:48.499Z,6.20
2018-12-22T21:32:17.415Z,6.20
2018-12-22T21:34:46.400Z,6.20
2018-12-22T21:37:15.167Z,6.20
2018-12-22T21:39:44.016Z,6.20
2018-12-22T21:42:12.672Z,6.20
2018-12-22T21:44:41.908Z,6.20
2018-12-22T21:47:10.830Z,6.10
2018-12-22T21:49:39.833Z,6.10
2018-12-22T21:52:08.648Z,6.00
2018-12-22T21:54:37.436Z,6.10
2018-12-22T21:57:06.178Z,6.10
2018-12-22T21:59:34.952Z,6.20
2018-12-22T22:02:03.848Z,6.20
2018-12-22T22:04:36.995Z,6.10
2018-12-22T22:07:03.340Z,6.10
2018-12-22T22:09:32.082Z,6.10
2018-12-22T22:12:00.851Z,6.20
2018-12-22T22:14:29.577Z,6.20
2018-12-22T22:16:58.369Z,6.20
2018-12-22T22:19:27.158Z,6.20
2018-12-22T22:21:55.867Z,6.20
2018-12-22T22:24:24.583Z,6.10
2018-12-22T22:26:53.247Z,6.10
2018-12-22T22:29:22.019Z,6.10
2018-12-22T22:31:50.789Z,6.10
2018-12-22T22:34:19.487Z,6.10
2018-12-22T22:36:48.194Z,6.10
2018-12-22T22:39:16.928Z,6.00
2018-12-22T22:41:45.743Z,6.10
2018-12-22T22:44:14.594Z,6.00
2018-12-22T22:46:43.506Z,6.00
2018-12-22T22:49:12.226Z,6.00
2018-12-22T22:51:40.950Z,5.90
2018-12-22T22:54:09.724Z,5.80
2018-12-22T22:56:38.391Z,5.80
2018-12-22T22:59:07.284Z,5.90
2018-12-22T23:01:36.092Z,5.90
2018-12-22T23:04:04.890Z,5.90
2018-12-22T23:06:33.580Z,6.00
2018-12-22T23:09:02.427Z,5.90
2018-12-22T23:11:31.410Z,5.90
2018-12-22T23:14:00.122Z,6.00
2018-12-22T23:16:28.918Z,6.00
2018-12-22T23:18:57.712Z,6.00
2018-12-22T23:21:26.824Z,6.00
2018-12-22T23:23:55.658Z,6.00
2018-12-22T23:26:24.370Z,6.00
2018-12-22T23:28:53.354Z,6.00
2018-12-22T23:31:22.161Z,6.00
2018-12-22T23:33:50.942Z,6.00
2018-12-22T23:36:19.958Z,6.00
2018-12-22T23:38:48.685Z,6.00
2018-12-22T23:41:17.936Z,6.00
2018-12-22T23:43:46.688Z,6.00
2018-12-22T23:46:15.718Z,6.00
2018-12-22T23:48:44.426Z,6.00
2018-12-22T23:51:13.400Z,6.00
2018-12-22T23:53:42.126Z,6.00
2018-12-22T23:56:10.874Z,6.00
2018-12-22T23:58:39.678Z,6.00
